Time;durP1;ratioP1;P1;durP2;ratioP2;P2;SDS_P1;SDS_P2;PMS_P1;PMS_P2;Temp;Humidity;BMP_temperature;BMP_pressure;BME280_temperature;BME280_humidity;BME280_pressure;Samples;Min_cycle;Max_cycle;Signal;HPM_P1;HPM_P2
2022/04/15 00:00:12;;;;;;;;;8.00;6.50;;;;;;;;5037824;28;9569;-75
2022/04/15 00:02:39;;;;;;;;;4.00;4.00;;;;;;;;5037709;28;9573;-75
2022/04/15 00:05:29;;;;;;;;;3.00;3.00;;;;;;;;5041591;28;9411;-75
2022/04/15 00:07:57;;;;;;;;;4.75;4.75;;;;;;;;5041429;28;9485;-75
2022/04/15 00:10:27;;;;;;;;;5.50;3.75;;;;;;;;5041462;28;10315;-74
2022/04/15 00:12:55;;;;;;;;;4.00;4.00;;;;;;;;5022154;28;9535;-75
2022/04/15 00:15:23;;;;;;;;;0.00;0.00;;;;;;;;5039388;28;9478;-75
2022/04/15 00:17:50;;;;;;;;;4.50;4.00;;;;;;;;5041464;28;9513;-74
2022/04/15 00:20:18;;;;;;;;;2.50;2.50;;;;;;;;5033521;28;9555;-74
2022/04/15 00:22:45;;;;;;;;;3.00;3.00;;;;;;;;5033878;28;10394;-74
2022/04/15 00:25:16;;;;;;;;;4.00;4.00;;;;;;;;5039860;28;9517;-74
2022/04/15 00:27:43;;;;;;;;;4.00;4.00;;;;;;;;5041410;28;9583;-74
2022/04/15 00:30:11;;;;;;;;;4.00;4.00;;;;;;;;5038856;28;9623;-72
2022/04/15 00:32:39;;;;;;;;;3.00;3.00;;;;;;;;5038860;28;9629;-73
2022/04/15 00:35:08;;;;;;;;;2.00;2.00;;;;;;;;5044128;28;9643;-74
2022/04/15 00:37:35;;;;;;;;;2.75;2.75;;;;;;;;5039294;28;9592;-74
2022/04/15 00:40:03;;;;;;;;;3.25;3.25;;;;;;;;5034980;28;9624;-74
2022/04/15 00:42:32;;;;;;;;;3.50;2.00;;;;;;;;5038856;28;9681;-74
2022/04/15 00:45:00;;;;;;;;;4.00;4.00;;;;;;;;5035071;28;9699;-74
2022/04/15 00:47:46;;;;;;;;;3.25;3.00;;;;;;;;5040205;28;9759;-74
2022/04/15 00:50:14;;;;;;;;;3.00;3.00;;;;;;;;5038081;28;9714;-73
2022/04/15 00:52:44;;;;;;;;;3.50;3.50;;;;;;;;5029437;28;9798;-73
2022/04/15 00:55:11;;;;;;;;;3.00;3.00;;;;;;;;5038657;28;9736;-73
2022/04/15 00:57:42;;;;;;;;;2.00;2.00;;;;;;;;5039460;28;9867;-74
2022/04/15 01:00:11;;;;;;;;;3.25;3.25;;;;;;;;5036791;28;10668;-74
2022/04/15 01:02:39;;;;;;;;;1.25;1.25;;;;;;;;5033001;28;9928;-74
2022/04/15 01:05:09;;;;;;;;;3.75;3.75;;;;;;;;5038406;28;9707;-73
2022/04/15 01:07:38;;;;;;;;;2.50;2.50;;;;;;;;5023212;28;9803;-73
2022/04/15 01:10:08;;;;;;;;;3.00;3.00;;;;;;;;5032996;28;10013;-73
2022/04/15 01:12:38;;;;;;;;;3.00;3.00;;;;;;;;5035867;28;10702;-74
2022/04/15 01:15:10;;;;;;;;;2.00;2.00;;;;;;;;5039167;28;10033;-74
2022/04/15 01:17:38;;;;;;;;;3.25;3.25;;;;;;;;5034631;28;10063;-75
2022/04/15 01:20:07;;;;;;;;;4.50;4.50;;;;;;;;5037449;28;10105;-73
2022/04/15 01:22:41;;;;;;;;;3.50;3.50;;;;;;;;5036649;28;10304;-73
2022/04/15 01:25:12;;;;;;;;;2.50;2.50;;;;;;;;5040912;28;10198;-73
2022/04/15 01:27:40;;;;;;;;;3.00;3.00;;;;;;;;5030446;28;10096;-74
2022/04/15 01:30:11;;;;;;;;;4.75;4.75;;;;;;;;5036263;28;10892;-75
2022/04/15 01:32:39;;;;;;;;;3.75;3.00;;;;;;;;5037948;28;11443;-75
2022/04/15 01:35:07;;;;;;;;;6.00;4.00;;;;;;;;5038839;28;10158;-74
2022/04/15 01:37:36;;;;;;;;;6.25;6.25;;;;;;;;5037644;28;10176;-74
2022/04/15 01:40:05;;;;;;;;;4.00;4.00;;;;;;;;5030936;28;10286;-74
2022/04/15 01:42:33;;;;;;;;;7.00;6.00;;;;;;;;5040464;28;10405;-77
2022/04/15 01:45:01;;;;;;;;;2.00;2.00;;;;;;;;5037763;28;10439;-77
2022/04/15 01:47:28;;;;;;;;;2.00;2.00;;;;;;;;5039675;28;10263;-75
2022/04/15 01:49:56;;;;;;;;;3.00;3.00;;;;;;;;5038714;28;10723;-74
2022/04/15 01:52:23;;;;;;;;;3.50;3.50;;;;;;;;5035149;28;10515;-74
2022/04/15 01:54:51;;;;;;;;;6.00;6.00;;;;;;;;5038516;28;11242;-74
2022/04/15 01:57:18;;;;;;;;;4.25;3.25;;;;;;;;5038664;28;10769;-73
2022/04/15 01:59:47;;;;;;;;;3.50;2.00;;;;;;;;5041722;28;10489;-74
2022/04/15 02:02:14;;;;;;;;;7.00;5.50;;;;;;;;5034325;28;10949;-73
2022/04/15 02:04:41;;;;;;;;;3.50;3.50;;;;;;;;5036330;28;11449;-73
2022/04/15 02:07:08;;;;;;;;;2.00;2.00;;;;;;;;5037764;28;10463;-73
2022/04/15 02:09:36;;;;;;;;;4.50;4.50;;;;;;;;5041651;28;10526;-73
2022/04/15 02:12:03;;;;;;;;;6.25;6.25;;;;;;;;5043570;28;10635;-73
2022/04/15 02:14:30;;;;;;;;;7.25;6.00;;;;;;;;5044671;28;10678;-74
2022/04/15 02:16:59;;;;;;;;;3.00;3.00;;;;;;;;5043385;28;10631;-74
2022/04/15 02:19:26;;;;;;;;;6.75;2.75;;;;;;;;5041757;28;10563;-74
2022/04/15 02:21:54;;;;;;;;;3.25;3.25;;;;;;;;5036986;28;10841;-73
2022/04/15 02:24:21;;;;;;;;;7.00;5.00;;;;;;;;5042310;28;10613;-73
2022/04/15 02:26:48;;;;;;;;;7.00;7.00;;;;;;;;5042500;28;10716;-73
2022/04/15 02:29:15;;;;;;;;;7.00;6.00;;;;;;;;5043959;28;10818;-73
2022/04/15 02:31:43;;;;;;;;;6.00;6.00;;;;;;;;5023522;28;12166;-74
2022/04/15 02:34:12;;;;;;;;;4.00;4.00;;;;;;;;5035195;28;10750;-73
2022/04/15 02:36:39;;;;;;;;;4.25;4.25;;;;;;;;5043807;28;10700;-73
2022/04/15 02:39:06;;;;;;;;;7.00;7.00;;;;;;;;5045417;28;10777;-74
2022/04/15 02:41:34;;;;;;;;;6.50;6.50;;;;;;;;5043332;28;10622;-74
2022/04/15 02:44:01;;;;;;;;;4.25;4.25;;;;;;;;5044409;28;10643;-74
2022/04/15 02:46:28;;;;;;;;;6.00;6.00;;;;;;;;5043805;28;10581;-73
2022/04/15 02:48:56;;;;;;;;;2.00;2.00;;;;;;;;5043011;28;10639;-73
2022/04/15 02:51:24;;;;;;;;;6.25;4.25;;;;;;;;5040063;28;10595;-74
2022/04/15 02:53:52;;;;;;;;;5.00;4.25;;;;;;;;5040320;28;10534;-72
2022/04/15 02:56:19;;;;;;;;;3.75;3.75;;;;;;;;5043204;28;10702;-73
2022/04/15 02:58:46;;;;;;;;;3.00;3.00;;;;;;;;5049377;28;11447;-73
2022/04/15 03:01:13;;;;;;;;;4.75;3.00;;;;;;;;5041586;28;10613;-75
2022/04/15 03:03:41;;;;;;;;;3.25;3.25;;;;;;;;5043679;28;10659;-73
2022/04/15 03:06:08;;;;;;;;;3.00;3.00;;;;;;;;5042865;28;10709;-76
2022/04/15 03:08:36;;;;;;;;;7.00;7.00;;;;;;;;5056325;28;10645;-76
2022/04/15 03:11:04;;;;;;;;;6.25;5.00;;;;;;;;5044620;28;10961;-75
2022/04/15 03:13:31;;;;;;;;;5.50;5.50;;;;;;;;5045267;28;10927;-77
2022/04/15 03:15:59;;;;;;;;;2.25;2.25;;;;;;;;5043850;28;10830;-74
2022/04/15 03:18:26;;;;;;;;;3.00;3.00;;;;;;;;5043450;28;10837;-76
2022/04/15 03:20:54;;;;;;;;;5.00;5.00;;;;;;;;5038603;28;11024;-74
2022/04/15 03:23:21;;;;;;;;;3.00;3.00;;;;;;;;5034834;28;10910;-73
2022/04/15 03:25:50;;;;;;;;;2.50;2.50;;;;;;;;5043928;28;10887;-77
2022/04/15 03:28:17;;;;;;;;;5.00;5.00;;;;;;;;5040970;28;10911;-74
2022/04/15 03:30:44;;;;;;;;;5.00;2.50;;;;;;;;5043740;28;11758;-73
2022/04/15 03:33:11;;;;;;;;;2.00;2.00;;;;;;;;5045237;28;10931;-73
2022/04/15 03:35:39;;;;;;;;;4.00;4.00;;;;;;;;5042894;28;10918;-73
2022/04/15 03:38:06;;;;;;;;;1.25;1.25;;;;;;;;5041896;28;11036;-74
2022/04/15 03:40:34;;;;;;;;;2.00;2.00;;;;;;;;5040282;28;10927;-73
2022/04/15 03:43:03;;;;;;;;;3.00;3.00;;;;;;;;5033162;28;11153;-74
2022/04/15 03:45:31;;;;;;;;;3.00;3.00;;;;;;;;5038607;28;11174;-74
2022/04/15 03:47:58;;;;;;;;;2.75;1.75;;;;;;;;5042897;28;11139;-73
2022/04/15 03:50:26;;;;;;;;;2.00;2.00;;;;;;;;5040706;28;11100;-74
2022/04/15 03:52:54;;;;;;;;;2.00;2.00;;;;;;;;5038417;28;11235;-75
2022/04/15 03:55:22;;;;;;;;;4.00;4.00;;;;;;;;5040418;28;11217;-74
2022/04/15 03:57:50;;;;;;;;;3.50;3.00;;;;;;;;5036682;28;11135;-74
2022/04/15 04:00:20;;;;;;;;;5.50;5.00;;;;;;;;5034436;28;11384;-74
2022/04/15 04:02:49;;;;;;;;;5.00;5.00;;;;;;;;5029727;28;11444;-73
2022/04/15 04:05:17;;;;;;;;;2.75;1.50;;;;;;;;5035082;28;12182;-74
2022/04/15 04:07:45;;;;;;;;;2.75;2.75;;;;;;;;5041955;28;11544;-73
2022/04/15 04:10:13;;;;;;;;;6.00;5.00;;;;;;;;5034156;28;12114;-73
2022/04/15 04:12:41;;;;;;;;;6.00;5.00;;;;;;;;5037373;28;11803;-73
2022/04/15 04:15:10;;;;;;;;;3.50;3.50;;;;;;;;5046974;28;11432;-73
2022/04/15 04:17:40;;;;;;;;;3.25;3.25;;;;;;;;5037786;28;11530;-74
2022/04/15 04:20:09;;;;;;;;;5.50;3.50;;;;;;;;5038703;28;11402;-72
2022/04/15 04:22:37;;;;;;;;;5.00;5.00;;;;;;;;5039422;28;11522;-74
2022/04/15 04:25:08;;;;;;;;;3.50;3.00;;;;;;;;5033660;28;11422;-72
2022/04/15 04:27:36;;;;;;;;;3.00;3.00;;;;;;;;5036295;28;11458;-72
2022/04/15 04:30:04;;;;;;;;;7.50;4.50;;;;;;;;5041684;28;11458;-72
2022/04/15 04:32:32;;;;;;;;;3.00;3.00;;;;;;;;5038564;28;11457;-72
2022/04/15 04:35:00;;;;;;;;;2.50;2.50;;;;;;;;5037746;28;11406;-72
2022/04/15 04:37:28;;;;;;;;;2.00;2.00;;;;;;;;5022213;28;11475;-72
2022/04/15 04:39:55;;;;;;;;;2.50;2.50;;;;;;;;5023011;28;11431;-73
2022/04/15 04:42:23;;;;;;;;;2.00;2.00;;;;;;;;5041772;28;11415;-72
2022/04/15 04:44:51;;;;;;;;;3.00;3.00;;;;;;;;5035630;28;12208;-72
2022/04/15 04:47:18;;;;;;;;;5.00;2.25;;;;;;;;5022344;28;11427;-72
2022/04/15 04:49:46;;;;;;;;;2.75;2.75;;;;;;;;5044963;28;11443;-72
2022/04/15 04:52:15;;;;;;;;;6.25;4.00;;;;;;;;5042364;28;11518;-73
2022/04/15 04:54:42;;;;;;;;;8.75;5.00;;;;;;;;5044632;28;11541;-74
2022/04/15 04:57:10;;;;;;;;;3.00;3.00;;;;;;;;5044477;28;11375;-77
2022/04/15 04:59:37;;;;;;;;;6.00;5.00;;;;;;;;5044181;28;11551;-74
2022/04/15 05:02:05;;;;;;;;;2.25;2.25;;;;;;;;5026492;28;11372;-74
2022/04/15 05:04:32;;;;;;;;;6.00;6.00;;;;;;;;5038806;28;11401;-75
2022/04/15 05:07:00;;;;;;;;;3.50;3.50;;;;;;;;5043241;28;11448;-74
2022/04/15 05:09:29;;;;;;;;;2.00;1.00;;;;;;;;5034396;28;11390;-72
2022/04/15 05:11:56;;;;;;;;;6.00;5.00;;;;;;;;5042127;28;11395;-73
2022/04/15 05:14:24;;;;;;;;;2.25;2.25;;;;;;;;5042949;28;11407;-73
2022/04/15 05:16:51;;;;;;;;;5.00;2.00;;;;;;;;5043603;28;11493;-73
2022/04/15 05:19:18;;;;;;;;;5.00;5.00;;;;;;;;5038492;28;11544;-71
2022/04/15 05:21:45;;;;;;;;;5.25;5.25;;;;;;;;5037367;28;11444;-73
2022/04/15 05:24:13;;;;;;;;;6.00;4.50;;;;;;;;5036056;28;12229;-80
2022/04/15 05:26:42;;;;;;;;;7.00;5.25;;;;;;;;5038211;28;11443;-78
2022/04/15 05:29:09;;;;;;;;;5.25;5.00;;;;;;;;5017157;28;11559;-81
2022/04/15 05:31:36;;;;;;;;;4.75;4.75;;;;;;;;5037865;28;11382;-76
2022/04/15 05:34:04;;;;;;;;;6.00;6.00;;;;;;;;5038501;28;11506;-76
2022/04/15 05:36:32;;;;;;;;;3.00;3.00;;;;;;;;5037765;28;11393;-74
2022/04/15 05:38:59;;;;;;;;;5.00;5.00;;;;;;;;5039490;28;11526;-76
2022/04/15 05:41:28;;;;;;;;;5.25;3.00;;;;;;;;5019203;28;11483;-76
2022/04/15 05:43:58;;;;;;;;;5.00;5.00;;;;;;;;5039633;28;11425;-77
2022/04/15 05:46:27;;;;;;;;;5.50;5.00;;;;;;;;5043705;28;11533;-76
2022/04/15 05:48:54;;;;;;;;;6.00;6.00;;;;;;;;5044759;28;11414;-78
2022/04/15 05:51:21;;;;;;;;;5.00;5.00;;;;;;;;5044514;28;11499;-77
2022/04/15 05:53:49;;;;;;;;;3.00;3.00;;;;;;;;5044668;28;11511;-76
2022/04/15 05:56:16;;;;;;;;;3.00;3.00;;;;;;;;5026246;28;11454;-78
2022/04/15 05:58:45;;;;;;;;;5.25;5.25;;;;;;;;5040313;28;11455;-78
2022/04/15 06:01:14;;;;;;;;;6.00;6.00;;;;;;;;5024524;28;11378;-76
2022/04/15 06:03:42;;;;;;;;;5.00;5.00;;;;;;;;5044722;28;12189;-78
2022/04/15 06:06:10;;;;;;;;;7.00;7.00;;;;;;;;5025814;28;11416;-77
2022/04/15 06:08:37;;;;;;;;;7.00;7.00;;;;;;;;5044462;28;11427;-77
2022/04/15 06:11:07;;;;;;;;;10.25;7.25;;;;;;;;5043419;28;12741;-77
2022/04/15 06:13:35;;;;;;;;;9.00;9.00;;;;;;;;5044309;28;11546;-75
2022/04/15 06:16:05;;;;;;;;;10.00;10.00;;;;;;;;5041902;28;11519;-76
2022/04/15 06:18:36;;;;;;;;;6.75;6.75;;;;;;;;5043294;28;11425;-76
2022/04/15 06:21:05;;;;;;;;;10.00;10.00;;;;;;;;5042262;28;11130;-76
2022/04/15 06:23:32;;;;;;;;;7.00;7.00;;;;;;;;5039371;28;11676;-78
2022/04/15 06:25:59;;;;;;;;;8.50;8.50;;;;;;;;5045408;28;11011;-77
2022/04/15 06:28:29;;;;;;;;;10.75;8.75;;;;;;;;5047079;28;11201;-79
2022/04/15 06:30:58;;;;;;;;;12.25;12.00;;;;;;;;5043069;28;10981;-78
2022/04/15 06:33:25;;;;;;;;;15.00;12.75;;;;;;;;5042033;28;10907;-77
2022/04/15 06:35:54;;;;;;;;;14.00;14.00;;;;;;;;5020125;28;11064;-77
2022/04/15 06:38:22;;;;;;;;;14.00;12.25;;;;;;;;5039219;28;10962;-79
2022/04/15 06:40:51;;;;;;;;;17.25;15.50;;;;;;;;5044849;28;10812;-82
2022/04/15 06:43:19;;;;;;;;;18.50;17.00;;;;;;;;5042200;28;10969;-82
2022/04/15 06:45:46;;;;;;;;;12.25;11.75;;;;;;;;5035154;28;10802;-79
2022/04/15 06:48:14;;;;;;;;;22.50;21.75;;;;;;;;5026129;28;10725;-77
2022/04/15 06:50:41;;;;;;;;;21.00;18.00;;;;;;;;5036030;28;10884;-79
2022/04/15 06:53:11;;;;;;;;;9.25;9.25;;;;;;;;5022041;28;10815;-79
2022/04/15 06:55:38;;;;;;;;;7.25;7.25;;;;;;;;5018445;28;10389;-79
2022/04/15 06:58:06;;;;;;;;;9.75;8.75;;;;;;;;5037902;28;10355;-80
2022/04/15 07:00:33;;;;;;;;;8.50;8.50;;;;;;;;5042675;28;10997;-80
2022/04/15 07:03:03;;;;;;;;;12.75;12.75;;;;;;;;5018924;28;11043;-80
2022/04/15 07:05:30;;;;;;;;;19.00;18.50;;;;;;;;5041799;28;10250;-82
2022/04/15 07:08:00;;;;;;;;;18.50;16.25;;;;;;;;5037507;28;10331;-82
2022/04/15 07:10:36;;;;;;;;;17.25;17.25;;;;;;;;5040497;28;10289;-82
2022/04/15 07:13:04;;;;;;;;;16.00;16.00;;;;;;;;5043013;28;10177;-81
2022/04/15 07:15:31;;;;;;;;;20.00;17.50;;;;;;;;5042507;28;10117;-79
2022/04/15 07:18:03;;;;;;;;;23.75;22.00;;;;;;;;5044056;28;10085;-83
2022/04/15 07:20:30;;;;;;;;;22.00;18.25;;;;;;;;5043945;28;10176;-81
2022/04/15 07:22:59;;;;;;;;;22.75;20.00;;;;;;;;5046822;28;10211;-81
2022/04/15 07:25:27;;;;;;;;;22.50;21.75;;;;;;;;5042604;28;10350;-81
2022/04/15 07:27:57;;;;;;;;;21.75;21.75;;;;;;;;5044196;28;10774;-81
2022/04/15 07:30:29;;;;;;;;;26.25;23.00;;;;;;;;5037670;28;10130;-80
2022/04/15 07:32:57;;;;;;;;;31.25;29.25;;;;;;;;5039626;28;10256;-80
2022/04/15 07:35:26;;;;;;;;;33.75;31.00;;;;;;;;5042014;28;10356;-82
2022/04/15 07:37:54;;;;;;;;;31.25;29.00;;;;;;;;5042798;28;10356;-81
2022/04/15 07:40:27;;;;;;;;;44.75;34.25;;;;;;;;5042136;28;10197;-81
2022/04/15 07:42:57;;;;;;;;;29.25;28.50;;;;;;;;5040296;28;10359;-80
2022/04/15 07:45:24;;;;;;;;;31.75;30.25;;;;;;;;5042272;28;10259;-81
2022/04/15 07:47:52;;;;;;;;;32.75;31.75;;;;;;;;5041415;28;10310;-81
2022/04/15 07:50:22;;;;;;;;;34.25;34.25;;;;;;;;5043888;28;10189;-78
2022/04/15 07:52:53;;;;;;;;;37.00;33.25;;;;;;;;5043806;28;10293;-81
2022/04/15 07:55:21;;;;;;;;;38.25;36.50;;;;;;;;5043310;28;11018;-81
2022/04/15 07:57:49;;;;;;;;;28.25;27.50;;;;;;;;5039410;28;10337;-76
2022/04/15 08:00:20;;;;;;;;;36.00;34.25;;;;;;;;5041282;28;10118;-77
2022/04/15 08:02:48;;;;;;;;;47.00;36.50;;;;;;;;5043831;28;10043;-81
2022/04/15 08:05:18;;;;;;;;;41.00;36.50;;;;;;;;5042768;28;10130;-80
2022/04/15 08:07:47;;;;;;;;;39.25;34.75;;;;;;;;5047973;28;10042;-83
2022/04/15 08:10:15;;;;;;;;;45.75;37.75;;;;;;;;5044804;28;10035;-80
2022/04/15 08:12:42;;;;;;;;;30.25;29.25;;;;;;;;5044168;28;9947;-83
2022/04/15 08:15:10;;;;;;;;;39.50;34.75;;;;;;;;5042728;28;9676;-83
2022/04/15 08:17:39;;;;;;;;;38.25;34.50;;;;;;;;5025270;28;9792;-82
2022/04/15 08:20:08;;;;;;;;;37.50;35.25;;;;;;;;5041831;28;9745;-83
2022/04/15 08:22:36;;;;;;;;;40.25;36.00;;;;;;;;5042913;28;9628;-82
2022/04/15 08:25:05;;;;;;;;;44.50;39.50;;;;;;;;5043805;28;9613;-82
2022/04/15 08:27:32;;;;;;;;;47.00;39.25;;;;;;;;5042172;28;9643;-82
2022/04/15 08:29:59;;;;;;;;;43.50;38.75;;;;;;;;5043889;28;9593;-80
2022/04/15 08:32:32;;;;;;;;;48.33;37.67;;;;;;;;5023135;28;9426;-80
2022/04/15 08:35:03;;;;;;;;;48.00;41.00;;;;;;;;5018727;28;9359;-81
2022/04/15 08:37:33;;;;;;;;;44.33;37.33;;;;;;;;5042869;28;9087;-81
2022/04/15 08:40:00;;;;;;;;;40.67;35.00;;;;;;;;5042053;28;9283;-82
2022/04/15 08:42:29;;;;;;;;;40.75;34.50;;;;;;;;5043755;28;9156;-83
2022/04/15 08:45:01;;;;;;;;;35.75;32.50;;;;;;;;5029035;28;9700;-82
2022/04/15 08:47:29;;;;;;;;;45.67;38.00;;;;;;;;5043042;28;8860;-82
2022/04/15 08:50:03;;;;;;;;;48.67;39.00;;;;;;;;5040352;28;8946;-82
2022/04/15 08:52:31;;;;;;;;;47.67;39.00;;;;;;;;5040922;28;9067;-81
2022/04/15 08:55:00;;;;;;;;;50.00;40.67;;;;;;;;5042716;28;9142;-81
2022/04/15 08:57:27;;;;;;;;;43.25;37.75;;;;;;;;5043077;28;9160;-82
2022/04/15 08:59:55;;;;;;;;;44.50;38.75;;;;;;;;5024957;28;8926;-83
2022/04/15 09:02:32;;;;;;;;;49.00;38.25;;;;;;;;5037335;28;8800;-83
2022/04/15 09:05:06;;;;;;;;;44.50;38.50;;;;;;;;5026290;28;8863;-82
2022/04/15 09:07:36;;;;;;;;;46.50;37.50;;;;;;;;5036898;28;8883;-83
2022/04/15 09:10:06;;;;;;;;;41.25;35.75;;;;;;;;5042830;28;8887;-83
2022/04/15 09:12:36;;;;;;;;;49.00;38.50;;;;;;;;5040808;28;8856;-83
2022/04/15 09:15:13;;;;;;;;;41.50;37.25;;;;;;;;5043346;28;8864;-78
2022/04/15 09:17:41;;;;;;;;;44.25;38.00;;;;;;;;5042271;28;8990;-81
2022/04/15 09:20:11;;;;;;;;;44.75;37.75;;;;;;;;5046085;28;8883;-83
2022/04/15 09:22:40;;;;;;;;;44.25;37.50;;;;;;;;5043892;28;8931;-84
2022/04/15 09:25:10;;;;;;;;;42.50;36.50;;;;;;;;5045756;28;9017;-82
2022/04/15 09:27:38;;;;;;;;;46.00;38.25;;;;;;;;5045706;28;8860;-85
2022/04/15 09:30:15;;;;;;;;;46.25;38.75;;;;;;;;5045681;28;8852;-80
2022/04/15 09:32:50;;;;;;;;;47.00;40.50;;;;;;;;5047547;28;8871;-85
2022/04/15 09:35:19;;;;;;;;;46.50;40.50;;;;;;;;5046960;28;8941;-84
2022/04/15 09:37:46;;;;;;;;;46.75;39.25;;;;;;;;5046297;28;8872;-82
2022/04/15 09:40:16;;;;;;;;;46.25;38.25;;;;;;;;5045692;28;8851;-85
2022/04/15 09:42:53;;;;;;;;;39.25;34.75;;;;;;;;5047927;28;8898;-85
2022/04/15 09:45:22;;;;;;;;;45.50;37.75;;;;;;;;5046633;28;8844;-81
2022/04/15 09:47:54;;;;;;;;;45.00;37.50;;;;;;;;5045783;28;8922;-82
2022/04/15 09:50:39;;;;;;;;;45.75;37.50;;;;;;;;5047761;28;8871;-84
2022/04/15 09:53:17;;;;;;;;;44.75;37.00;;;;;;;;5045630;28;8875;-83
2022/04/15 09:55:46;;;;;;;;;43.50;37.00;;;;;;;;5045697;28;9526;-81
2022/04/15 09:58:15;;;;;;;;;45.00;38.25;;;;;;;;5041610;28;8836;-80
2022/04/15 10:00:45;;;;;;;;;42.50;36.00;;;;;;;;5040379;28;8807;-83
2022/04/15 10:03:21;;;;;;;;;40.75;34.00;;;;;;;;5025396;28;8870;-80
2022/04/15 10:05:50;;;;;;;;;38.50;34.25;;;;;;;;5007439;28;8936;-80
2022/04/15 10:08:22;;;;;;;;;33.25;30.50;;;;;;;;5026865;28;8874;-84
2022/04/15 10:10:50;;;;;;;;;39.50;35.75;;;;;;;;5024601;28;8870;-84
2022/04/15 10:13:17;;;;;;;;;36.25;33.00;;;;;;;;5023958;28;8878;-84
2022/04/15 10:15:47;;;;;;;;;36.75;34.00;;;;;;;;5020441;28;8903;-81
2022/04/15 10:18:15;;;;;;;;;36.25;33.00;;;;;;;;5025105;28;8911;-77
2022/04/15 10:20:44;;;;;;;;;28.75;28.75;;;;;;;;5021551;28;9629;-78
2022/04/15 10:23:13;;;;;;;;;38.50;32.25;;;;;;;;5016744;28;8862;-78
2022/04/15 10:25:46;;;;;;;;;33.40;30.20;;;;;;;;5023521;28;8886;-81
2022/04/15 10:28:14;;;;;;;;;40.20;35.00;;;;;;;;5024592;28;8870;-79
2022/04/15 10:30:51;;;;;;;;;33.20;31.80;;;;;;;;5018157;28;8804;-81
2022/04/15 10:33:29;;;;;;;;;37.80;32.60;;;;;;;;5015776;28;9624;-81
2022/04/15 10:36:00;;;;;;;;;33.80;30.00;;;;;;;;5018987;28;9636;-79
2022/04/15 10:38:29;;;;;;;;;34.60;31.40;;;;;;;;5025301;28;8871;-80
2022/04/15 10:40:57;;;;;;;;;32.80;30.20;;;;;;;;5023593;28;8889;-81
2022/04/15 10:43:27;;;;;;;;;34.00;30.40;;;;;;;;5012866;28;9639;-81
2022/04/15 10:46:13;;;;;;;;;29.20;28.40;;;;;;;;5021661;28;9671;-79
2022/04/15 10:48:42;;;;;;;;;28.60;24.40;;;;;;;;5020511;28;8870;-79
2022/04/15 10:51:22;;;;;;;;;28.80;27.80;;;;;;;;5023123;28;8846;-81
2022/04/15 10:53:51;;;;;;;;;28.20;28.00;;;;;;;;4998452;28;8856;-82
2022/04/15 10:56:20;;;;;;;;;34.40;29.80;;;;;;;;5023561;28;8881;-80
2022/04/15 11:01:32;;;;;;;;;24.40;24.40;;;;;;;;5029992;28;8874;-83
2022/04/15 11:04:04;;;;;;;;;30.20;28.40;;;;;;;;5041267;28;8886;-81
2022/04/15 11:06:32;;;;;;;;;31.80;30.80;;;;;;;;5039398;28;9662;-80
2022/04/15 11:09:14;;;;;;;;;32.40;30.60;;;;;;;;5023098;28;8983;-78
2022/04/15 11:11:45;;;;;;;;;27.00;26.40;;;;;;;;5040952;28;8860;-80
2022/04/15 11:14:14;;;;;;;;;29.60;27.00;;;;;;;;5036900;28;8902;-80
2022/04/15 11:16:43;;;;;;;;;28.60;25.80;;;;;;;;5043279;28;8844;-78
2022/04/15 11:19:12;;;;;;;;;31.00;25.60;;;;;;;;5035610;28;8842;-76
2022/04/15 11:21:41;;;;;;;;;32.40;29.60;;;;;;;;5040768;28;8875;-77
2022/04/15 11:24:12;;;;;;;;;27.80;27.00;;;;;;;;5040464;28;10515;-79
2022/04/15 11:26:42;;;;;;;;;30.20;28.80;;;;;;;;5026827;28;8876;-77
2022/04/15 11:29:11;;;;;;;;;26.20;24.60;;;;;;;;5034012;28;9068;-79
2022/04/15 11:31:41;;;;;;;;;27.20;25.20;;;;;;;;5039281;28;8829;-78
2022/04/15 11:34:10;;;;;;;;;22.60;20.40;;;;;;;;5037673;28;8848;-80
2022/04/15 11:36:39;;;;;;;;;23.60;23.60;;;;;;;;5039975;28;8945;-81
2022/04/15 11:39:10;;;;;;;;;26.40;26.40;;;;;;;;5038026;28;8840;-80
2022/04/15 11:41:39;;;;;;;;;31.00;28.00;;;;;;;;5039312;28;8856;-79
2022/04/15 11:44:08;;;;;;;;;28.60;28.60;;;;;;;;5041035;28;8986;-80
2022/04/15 11:46:43;;;;;;;;;30.40;26.60;;;;;;;;5036457;28;8868;-81
2022/04/15 11:49:14;;;;;;;;;25.60;25.60;;;;;;;;5040335;28;8903;-79
2022/04/15 11:51:45;;;;;;;;;30.00;29.40;;;;;;;;5038695;28;8852;-78
2022/04/15 11:54:13;;;;;;;;;26.20;26.20;;;;;;;;5034971;28;8878;-80
2022/04/15 11:56:42;;;;;;;;;28.00;27.60;;;;;;;;5042203;28;8844;-78
2022/04/15 11:59:11;;;;;;;;;31.20;29.80;;;;;;;;5037635;28;8872;-79
2022/04/15 12:01:39;;;;;;;;;26.80;25.20;;;;;;;;5057253;28;8801;-78
2022/04/15 12:04:07;;;;;;;;;26.00;24.20;;;;;;;;5031878;28;8886;-77
2022/04/15 12:06:41;;;;;;;;;25.00;23.60;;;;;;;;5019820;28;8856;-77
2022/04/15 12:09:14;;;;;;;;;32.80;30.20;;;;;;;;5038294;28;8848;-78
2022/04/15 12:11:42;;;;;;;;;28.40;23.80;;;;;;;;5038613;28;8876;-79
2022/04/15 12:14:10;;;;;;;;;28.60;28.60;;;;;;;;5039952;28;8941;-81
2022/04/15 12:16:39;;;;;;;;;25.80;24.20;;;;;;;;5037246;28;8876;-81
2022/04/15 12:19:09;;;;;;;;;26.20;26.20;;;;;;;;5034191;28;8883;-81
2022/04/15 12:21:37;;;;;;;;;25.00;24.00;;;;;;;;5042392;28;8942;-80
2022/04/15 12:24:09;;;;;;;;;19.00;17.20;;;;;;;;5040293;28;9012;-82
2022/04/15 12:26:59;;;;;;;;;26.40;26.40;;;;;;;;5039931;28;8971;-80
2022/04/15 12:29:47;;;;;;;;;24.80;24.80;;;;;;;;5039829;28;8875;-86
2022/04/15 12:32:21;;;;;;;;;21.60;21.60;;;;;;;;5035876;28;8820;-82
2022/04/15 12:34:51;;;;;;;;;27.40;27.40;;;;;;;;5042759;28;8892;-82
2022/04/15 12:37:39;;;;;;;;;18.40;18.00;;;;;;;;5037030;28;8899;-85
2022/04/15 12:40:11;;;;;;;;;19.80;19.20;;;;;;;;5036346;28;8874;-82
2022/04/15 12:42:42;;;;;;;;;21.80;20.20;;;;;;;;5043192;28;8877;-81
2022/04/15 12:45:12;;;;;;;;;22.40;21.20;;;;;;;;5033362;28;8943;-79
2022/04/15 12:47:40;;;;;;;;;22.60;20.40;;;;;;;;5021977;28;8876;-81
2022/04/15 12:50:19;;;;;;;;;26.60;26.60;;;;;;;;5024566;28;8864;-81
2022/04/15 12:52:48;;;;;;;;;21.20;21.20;;;;;;;;5024832;28;8848;-81
2022/04/15 12:55:25;;;;;;;;;31.00;28.00;;;;;;;;5042947;28;8942;-80
2022/04/15 12:57:59;;;;;;;;;25.40;25.40;;;;;;;;5041617;28;8860;-82
2022/04/15 13:00:27;;;;;;;;;29.60;29.40;;;;;;;;5040458;28;8789;-79
2022/04/15 13:02:57;;;;;;;;;34.00;30.00;;;;;;;;5041348;28;8922;-82
2022/04/15 13:05:26;;;;;;;;;25.00;25.00;;;;;;;;5039871;28;8878;-81
2022/04/15 13:07:54;;;;;;;;;27.00;27.00;;;;;;;;5041215;28;9022;-81
2022/04/15 13:10:24;;;;;;;;;23.00;22.80;;;;;;;;5021188;28;8860;-82
2022/04/15 13:12:54;;;;;;;;;22.20;20.20;;;;;;;;5043594;28;8856;-82
2022/04/15 13:15:24;;;;;;;;;24.80;24.00;;;;;;;;5016879;28;8841;-83
2022/04/15 13:17:51;;;;;;;;;22.80;22.60;;;;;;;;5036927;28;8872;-81
2022/04/15 13:20:19;;;;;;;;;22.20;20.60;;;;;;;;5039688;28;8846;-82
2022/04/15 13:22:47;;;;;;;;;24.60;24.60;;;;;;;;5020228;28;8868;-80
2022/04/15 13:25:14;;;;;;;;;23.60;23.60;;;;;;;;5023672;28;8921;-80
2022/04/15 13:27:42;;;;;;;;;21.40;19.60;;;;;;;;5031668;28;8850;-82
2022/04/15 13:30:11;;;;;;;;;21.40;20.40;;;;;;;;5028284;28;8919;-81
2022/04/15 13:32:39;;;;;;;;;24.20;22.80;;;;;;;;5041528;28;8978;-82
2022/04/15 13:35:07;;;;;;;;;19.40;19.40;;;;;;;;5040546;28;8844;-83
2022/04/15 13:37:35;;;;;;;;;27.40;26.60;;;;;;;;5036205;28;8852;-83
2022/04/15 13:40:03;;;;;;;;;26.40;24.80;;;;;;;;5034938;28;8844;-84
2022/04/15 13:42:32;;;;;;;;;24.80;24.80;;;;;;;;5040836;28;8957;-84
2022/04/15 13:45:00;;;;;;;;;24.00;22.20;;;;;;;;5037416;28;8937;-82
2022/04/15 13:47:28;;;;;;;;;24.20;22.80;;;;;;;;5031837;28;8898;-83
2022/04/15 13:49:56;;;;;;;;;21.40;21.00;;;;;;;;5039863;28;8876;-84
2022/04/15 13:57:54;;;;;;;;;23.80;20.80;;;;;;;;5039515;28;8868;-83
2022/04/15 14:00:24;;;;;;;;;19.60;18.00;;;;;;;;5021462;28;8850;-85
2022/04/15 14:02:54;;;;;;;;;23.20;23.20;;;;;;;;5037732;28;8874;-82
2022/04/15 14:05:26;;;;;;;;;21.80;20.40;;;;;;;;5042875;28;8880;-83
2022/04/15 14:07:54;;;;;;;;;20.80;20.80;;;;;;;;5028291;28;8856;-81
2022/04/15 14:10:22;;;;;;;;;27.00;22.20;;;;;;;;5045321;28;8871;-82
2022/04/15 14:12:50;;;;;;;;;21.60;21.60;;;;;;;;5032972;28;8854;-81
2022/04/15 14:15:23;;;;;;;;;19.80;19.80;;;;;;;;5033834;28;8876;-80
2022/04/15 14:17:54;;;;;;;;;21.00;20.00;;;;;;;;5040440;28;8869;-81
2022/04/15 14:20:22;;;;;;;;;18.80;18.80;;;;;;;;5040700;28;8846;-80
2022/04/15 14:22:52;;;;;;;;;18.20;18.20;;;;;;;;5038388;28;8860;-78
2022/04/15 14:25:20;;;;;;;;;25.80;23.80;;;;;;;;5038927;28;8973;-81
2022/04/15 14:27:47;;;;;;;;;18.80;18.80;;;;;;;;5042977;28;8859;-82
2022/04/15 14:30:15;;;;;;;;;18.60;18.60;;;;;;;;5023708;28;8870;-81
2022/04/15 14:32:43;;;;;;;;;20.80;20.80;;;;;;;;5037439;28;9709;-82
2022/04/15 14:35:15;;;;;;;;;19.40;19.40;;;;;;;;5045793;28;8875;-82
2022/04/15 14:37:42;;;;;;;;;24.60;22.40;;;;;;;;5038661;28;8873;-79
2022/04/15 14:40:10;;;;;;;;;20.80;20.80;;;;;;;;5035068;28;8898;-78
2022/04/15 14:42:39;;;;;;;;;22.20;22.20;;;;;;;;5041107;28;8907;-80
2022/04/15 14:45:07;;;;;;;;;25.20;23.40;;;;;;;;5026610;28;9681;-81
2022/04/15 14:47:34;;;;;;;;;18.60;18.60;;;;;;;;5034788;28;8876;-78
2022/04/15 14:50:03;;;;;;;;;19.00;18.20;;;;;;;;5043443;28;8914;-80
2022/04/15 14:52:32;;;;;;;;;21.60;21.60;;;;;;;;5040882;28;8836;-83
2022/04/15 14:55:01;;;;;;;;;22.00;18.80;;;;;;;;5042144;28;8880;-81